Time,TemperatureF,DewpointF,PressureIn,WindDirection,WindDirectionDegrees,WindSpeedMPH,WindSpeedGustMPH,Humidity,HourlyPrecipIn,Conditions,Clouds,dailyrainin,SoftwareType,DateUTC
2013-11-27 00:05:00,23.0,16.6,30.13,NNW,330,9.0,14.0,76,0.00,,,0.00,Wunderground v.1.15,2013-11-27 06:05:00,
2013-11-27 00:35:00,22.7,16.9,30.13,North,354,9.0,9.0,78,0.00,,,0.00,Wunderground v.1.15,2013-11-27 06:35:00,
2013-11-27 01:05:00,22.5,17.3,30.13,North,352,8.0,8.0,80,0.00,,,0.00,Wunderground v.1.15,2013-11-27 07:05:00,
2013-11-27 01:35:00,22.2,17.3,30.13,NW,326,6.0,6.0,81,0.00,,,0.00,Wunderground v.1.15,2013-11-27 07:35:00,
2013-11-27 02:05:00,21.6,16.7,30.13,NNW,330,8.0,12.0,81,0.00,,,0.00,Wunderground v.1.15,2013-11-27 08:05:00,
2013-11-27 02:35:00,21.1,16.5,30.14,NW,311,9.0,9.0,82,0.00,,,0.00,Wunderground v.1.15,2013-11-27 08:35:00,
2013-11-27 03:05:00,21.4,17.6,30.13,NW,305,9.0,9.0,85,0.00,,,0.00,Wunderground v.1.15,2013-11-27 09:05:00,
2013-11-27 03:35:00,22.2,18.7,30.13,NNW,339,10.0,14.0,86,0.00,,,0.00,Wunderground v.1.15,2013-11-27 09:35:00,
2013-11-27 04:05:00,22.5,18.7,30.14,NW,318,10.0,10.0,85,0.00,,,0.00,Wunderground v.1.15,2013-11-27 10:05:00,
2013-11-27 04:35:00,22.4,18.6,30.15,North,0,11.0,12.0,85,0.00,,,0.00,Wunderground v.1.15,2013-11-27 10:35:00,
2013-11-27 05:05:00,21.8,18.0,30.15,North,350,9.0,9.0,85,0.00,,,0.00,Wunderground v.1.15,2013-11-27 11:05:00,
2013-11-27 05:35:00,21.1,17.0,30.17,NNW,330,7.0,7.0,84,0.00,,,0.00,Wunderground v.1.15,2013-11-27 11:35:00,
2013-11-27 06:05:00,20.8,16.2,30.17,North,0,7.0,8.0,82,0.00,,,0.00,Wunderground v.1.15,2013-11-27 12:05:00,
2013-11-27 06:35:00,20.0,15.9,30.18,North,349,7.0,7.0,84,0.00,,,0.00,Wunderground v.1.15,2013-11-27 12:35:00,
2013-11-27 07:05:00,19.4,15.9,30.19,NW,306,7.0,7.0,86,0.00,,,0.00,Wunderground v.1.15,2013-11-27 13:05:00,
2013-11-27 07:35:00,18.4,14.4,30.20,North,357,6.0,6.0,84,0.00,,,0.00,Wunderground v.1.15,2013-11-27 13:35:00,
2013-11-27 08:05:00,17.0,13.5,30.21,WNW,302,7.0,7.0,86,0.00,,,0.00,Wunderground v.1.15,2013-11-27 14:05:00,
2013-11-27 08:35:00,16.7,13.8,30.22,NW,308,6.0,6.0,88,0.00,,,0.00,Wunderground v.1.15,2013-11-27 14:35:00,
2013-11-27 09:05:00,17.5,14.0,30.22,NW,320,6.0,6.0,86,0.00,,,0.00,Wunderground v.1.15,2013-11-27 15:05:00,
2013-11-27 09:35:00,18.6,14.8,30.22,West,263,7.0,7.0,85,0.00,,,0.00,Wunderground v.1.15,2013-11-27 15:35:00,
2013-11-27 10:05:00,19.4,15.1,30.23,NW,322,8.0,10.0,83,0.00,,,0.00,Wunderground v.1.15,2013-11-27 16:05:00,
2013-11-27 10:35:00,21.1,15.3,30.23,West,272,8.0,9.0,78,0.00,,,0.00,Wunderground v.1.15,2013-11-27 16:35:00,
2013-11-27 11:05:00,22.4,16.9,30.22,NW,308,7.0,7.0,79,0.00,,,0.00,Wunderground v.1.15,2013-11-27 17:05:00,
2013-11-27 11:35:00,23.3,16.9,30.22,NNW,335,10.0,11.0,76,0.00,,,0.00,Wunderground v.1.15,2013-11-27 17:35:00,
2013-11-27 12:05:00,24.4,17.6,30.22,WNW,301,7.0,7.0,75,0.00,,,0.00,Wunderground v.1.15,2013-11-27 18:05:00,
2013-11-27 12:35:00,25.0,17.2,30.21,WNW,292,6.0,6.0,72,0.00,,,0.00,Wunderground v.1.15,2013-11-27 18:35:00,
2013-11-27 13:05:00,26.0,17.2,30.22,NW,309,6.0,8.0,69,0.00,,,0.00,Wunderground v.1.15,2013-11-27 19:05:00,
2013-11-27 13:35:00,25.3,16.9,30.22,NW,323,7.0,12.0,70,0.00,,,0.00,Wunderground v.1.15,2013-11-27 19:35:00,
2013-11-27 14:05:00,25.6,16.8,30.22,NW,315,6.0,7.0,69,0.00,,,0.00,Wunderground v.1.15,2013-11-27 20:05:00,
2013-11-27 14:35:00,26.3,15.4,30.24,North,352,7.0,7.0,63,0.00,,,0.00,Wunderground v.1.15,2013-11-27 20:35:00,
2013-11-27 15:05:00,26.7,13.9,30.24,NNW,339,7.0,8.0,58,0.00,,,0.00,Wunderground v.1.15,2013-11-27 21:05:00,
2013-11-27 15:35:00,26.9,14.1,30.25,NNW,339,7.0,7.0,58,0.00,,,0.00,Wunderground v.1.15,2013-11-27 21:35:00,
2013-11-27 16:05:00,26.9,13.7,30.25,North,350,4.0,7.0,57,0.00,,,0.00,Wunderground v.1.15,2013-11-27 22:05:00,
2013-11-27 16:35:00,25.8,13.4,30.25,NW,322,1.0,2.0,59,0.00,,,0.00,Wunderground v.1.15,2013-11-27 22:35:00,
2013-11-27 17:05:00,25.1,13.9,30.27,North,353,0.0,0.0,62,0.00,,,0.00,Wunderground v.1.15,2013-11-27 23:05:00,
2013-11-27 17:35:00,23.9,13.8,30.28,North,353,0.0,0.0,65,0.00,,,0.00,Wunderground v.1.15,2013-11-27 23:35:00,
2013-11-27 18:05:00,23.3,13.3,30.28,North,352,0.0,0.0,65,0.00,,,0.00,Wunderground v.1.15,2013-11-28 00:05:00,
2013-11-27 18:35:00,22.4,11.3,30.29,North,353,0.0,0.0,62,0.00,,,0.00,Wunderground v.1.15,2013-11-28 00:35:00,
2013-11-27 19:05:00,22.1,11.1,30.29,North,352,0.0,0.0,62,0.00,,,0.00,Wunderground v.1.15,2013-11-28 01:05:00,
2013-11-27 19:35:00,21.8,11.5,30.30,West,268,1.0,1.0,64,0.00,,,0.00,Wunderground v.1.15,2013-11-28 01:35:00,
2013-11-27 20:05:00,21.6,11.3,30.31,West,268,3.0,3.0,64,0.00,,,0.00,Wunderground v.1.15,2013-11-28 02:05:00,
2013-11-27 20:35:00,21.1,11.8,30.31,West,278,3.0,3.0,67,0.00,,,0.00,Wunderground v.1.15,2013-11-28 02:35:00,
2013-11-27 21:05:00,20.8,11.9,30.32,West,278,2.0,2.0,68,0.00,,,0.00,Wunderground v.1.15,2013-11-28 03:05:00,
2013-11-27 21:35:00,21.1,12.2,30.31,WNW,289,1.0,1.0,68,0.00,,,0.00,Wunderground v.1.15,2013-11-28 03:35:00,
2013-11-27 22:05:00,21.3,12.4,30.32,WNW,288,0.0,0.0,68,0.00,,,0.00,Wunderground v.1.15,2013-11-28 04:05:00,
2013-11-27 22:35:00,21.6,13.0,30.32,West,281,1.0,1.0,69,0.00,,,0.00,Wunderground v.1.15,2013-11-28 04:35:00,
2013-11-27 23:05:00,21.9,13.3,30.32,WSW,257,1.0,1.0,69,0.00,,,0.00,Wunderground v.1.15,2013-11-28 05:05:00,
2013-11-27 23:35:00,21.9,13.3,30.32,WSW,257,0.0,0.0,69,0.00,,,0.00,Wunderground v.1.15,2013-11-28 05:35:00,